sensor_id;sensor_type;location;lat;lon;timestamp;pressure;altitude;pressure_sealevel;temperature;humidity
60244;BME280;46106;51.468;5.814;2023-08-17T00:02:13;101589.63;;;19.20;100.00
60244;BME280;46106;51.468;5.814;2023-08-17T00:04:39;101588.44;;;19.22;100.00
60244;BME280;46106;51.468;5.814;2023-08-17T00:07:05;101589.16;;;19.06;100.00
60244;BME280;46106;51.468;5.814;2023-08-17T00:09:31;101583.28;;;19.09;100.00
60244;BME280;46106;51.468;5.814;2023-08-17T00:11:56;101598.34;;;19.07;100.00
60244;BME280;46106;51.468;5.814;2023-08-17T00:14:22;101596.31;;;19.09;100.00
60244;BME280;46106;51.468;5.814;2023-08-17T00:16:49;101590.59;;;19.10;100.00
60244;BME280;46106;51.468;5.814;2023-08-17T00:19:15;101597.72;;;19.13;100.00
60244;BME280;46106;51.468;5.814;2023-08-17T00:21:41;101603.59;;;18.92;100.00
60244;BME280;46106;51.468;5.814;2023-08-17T00:24:06;101594.72;;;18.88;100.00
60244;BME280;46106;51.468;5.814;2023-08-17T00:26:32;101591.81;;;18.80;100.00
60244;BME280;46106;51.468;5.814;2023-08-17T00:28:58;101596.66;;;18.78;100.00
60244;BME280;46106;51.468;5.814;2023-08-17T00:31:23;101606.31;;;18.74;100.00
60244;BME280;46106;51.468;5.814;2023-08-17T00:33:48;101597.91;;;18.66;100.00
60244;BME280;46106;51.468;5.814;2023-08-17T00:36:14;101599.66;;;18.67;100.00
60244;BME280;46106;51.468;5.814;2023-08-17T00:38:40;101600.06;;;18.72;100.00
60244;BME280;46106;51.468;5.814;2023-08-17T00:41:05;101589.50;;;18.76;100.00
60244;BME280;46106;51.468;5.814;2023-08-17T00:43:31;101595.88;;;18.68;100.00
60244;BME280;46106;51.468;5.814;2023-08-17T00:45:57;101598.84;;;18.57;100.00
60244;BME280;46106;51.468;5.814;2023-08-17T00:48:23;101592.69;;;18.63;100.00
60244;BME280;46106;51.468;5.814;2023-08-17T00:50:50;101589.47;;;18.58;100.00
60244;BME280;46106;51.468;5.814;2023-08-17T00:53:18;101586.00;;;18.55;100.00
60244;BME280;46106;51.468;5.814;2023-08-17T00:55:44;101589.72;;;18.46;100.00
60244;BME280;46106;51.468;5.814;2023-08-17T00:58:09;101581.22;;;18.48;100.00
60244;BME280;46106;51.468;5.814;2023-08-17T01:00:36;101583.91;;;18.40;100.00
60244;BME280;46106;51.468;5.814;2023-08-17T01:03:01;101576.47;;;18.40;100.00
60244;BME280;46106;51.468;5.814;2023-08-17T01:05:29;101579.25;;;18.40;100.00
60244;BME280;46106;51.468;5.814;2023-08-17T01:07:56;101582.38;;;18.27;100.00
60244;BME280;46106;51.468;5.814;2023-08-17T01:10:21;101585.91;;;18.19;100.00
60244;BME280;46106;51.468;5.814;2023-08-17T01:15:38;101592.25;;;18.12;100.00
60244;BME280;46106;51.468;5.814;2023-08-17T01:18:23;101588.44;;;18.13;100.00
60244;BME280;46106;51.468;5.814;2023-08-17T01:20:52;101593.25;;;18.11;100.00
60244;BME280;46106;51.468;5.814;2023-08-17T01:23:18;101597.94;;;18.10;100.00
60244;BME280;46106;51.468;5.814;2023-08-17T01:25:44;101584.38;;;18.07;100.00
60244;BME280;46106;51.468;5.814;2023-08-17T01:28:09;101587.00;;;18.09;100.00
60244;BME280;46106;51.468;5.814;2023-08-17T01:30:53;101590.69;;;17.99;100.00
60244;BME280;46106;51.468;5.814;2023-08-17T01:33:25;101587.19;;;17.97;100.00
60244;BME280;46106;51.468;5.814;2023-08-17T01:38:25;101594.31;;;18.00;100.00
60244;BME280;46106;51.468;5.814;2023-08-17T01:40:54;101595.81;;;17.94;100.00
60244;BME280;46106;51.468;5.814;2023-08-17T01:43:20;101594.16;;;18.02;100.00
60244;BME280;46106;51.468;5.814;2023-08-17T01:45:46;101593.91;;;17.95;100.00
60244;BME280;46106;51.468;5.814;2023-08-17T01:48:11;101590.28;;;17.94;100.00
60244;BME280;46106;51.468;5.814;2023-08-17T01:50:37;101603.53;;;18.00;100.00
60244;BME280;46106;51.468;5.814;2023-08-17T01:53:02;101604.13;;;17.94;100.00
60244;BME280;46106;51.468;5.814;2023-08-17T01:55:28;101602.22;;;17.95;100.00
60244;BME280;46106;51.468;5.814;2023-08-17T01:57:53;101607.72;;;18.05;100.00
60244;BME280;46106;51.468;5.814;2023-08-17T02:00:19;101592.59;;;17.99;100.00
60244;BME280;46106;51.468;5.814;2023-08-17T02:02:44;101594.34;;;17.90;100.00
60244;BME280;46106;51.468;5.814;2023-08-17T02:05:10;101596.53;;;17.96;100.00
60244;BME280;46106;51.468;5.814;2023-08-17T02:07:35;101601.34;;;17.94;100.00
60244;BME280;46106;51.468;5.814;2023-08-17T02:10:01;101596.69;;;17.95;100.00
60244;BME280;46106;51.468;5.814;2023-08-17T02:12:27;101599.28;;;17.87;100.00
60244;BME280;46106;51.468;5.814;2023-08-17T02:14:52;101610.94;;;18.00;100.00
60244;BME280;46106;51.468;5.814;2023-08-17T02:17:18;101609.09;;;17.91;100.00
60244;BME280;46106;51.468;5.814;2023-08-17T02:19:44;101608.47;;;17.97;100.00
60244;BME280;46106;51.468;5.814;2023-08-17T02:22:10;101609.38;;;17.97;100.00
60244;BME280;46106;51.468;5.814;2023-08-17T02:24:36;101601.50;;;17.93;100.00
60244;BME280;46106;51.468;5.814;2023-08-17T02:27:02;101602.38;;;17.93;100.00
60244;BME280;46106;51.468;5.814;2023-08-17T02:29:27;101605.00;;;17.95;100.00
60244;BME280;46106;51.468;5.814;2023-08-17T02:31:55;101602.22;;;17.95;100.00
60244;BME280;46106;51.468;5.814;2023-08-17T02:34:21;101606.84;;;18.04;100.00
60244;BME280;46106;51.468;5.814;2023-08-17T02:36:46;101597.88;;;17.82;100.00
60244;BME280;46106;51.468;5.814;2023-08-17T02:39:12;101600.63;;;17.82;100.00
60244;BME280;46106;51.468;5.814;2023-08-17T02:41:37;101594.81;;;17.86;100.00
60244;BME280;46106;51.468;5.814;2023-08-17T02:44:03;101590.72;;;17.90;100.00
60244;BME280;46106;51.468;5.814;2023-08-17T02:46:28;101583.75;;;17.76;100.00
60244;BME280;46106;51.468;5.814;2023-08-17T02:48:54;101573.38;;;17.78;100.00
60244;BME280;46106;51.468;5.814;2023-08-17T02:51:19;101580.06;;;17.85;100.00
60244;BME280;46106;51.468;5.814;2023-08-17T02:53:46;101579.09;;;17.67;100.00
60244;BME280;46106;51.468;5.814;2023-08-17T02:56:11;101571.66;;;17.67;100.00
60244;BME280;46106;51.468;5.814;2023-08-17T02:58:41;101574.69;;;17.74;100.00
60244;BME280;46106;51.468;5.814;2023-08-17T03:01:08;101576.19;;;17.68;100.00
60244;BME280;46106;51.468;5.814;2023-08-17T03:03:33;101572.22;;;17.71;100.00
60244;BME280;46106;51.468;5.814;2023-08-17T03:05:59;101563.94;;;17.61;100.00
60244;BME280;46106;51.468;5.814;2023-08-17T03:08:24;101564.84;;;17.61;100.00
60244;BME280;46106;51.468;5.814;2023-08-17T03:10:50;101573.28;;;17.60;100.00
60244;BME280;46106;51.468;5.814;2023-08-17T03:13:15;101569.34;;;17.53;100.00
60244;BME280;46106;51.468;5.814;2023-08-17T03:15:41;101568.91;;;17.57;100.00
60244;BME280;46106;51.468;5.814;2023-08-17T03:18:07;101572.56;;;17.58;100.00
60244;BME280;46106;51.468;5.814;2023-08-17T03:20:32;101567.59;;;17.61;100.00
60244;BME280;46106;51.468;5.814;2023-08-17T03:22:57;101570.97;;;17.55;100.00
60244;BME280;46106;51.468;5.814;2023-08-17T03:25:24;101559.03;;;17.55;100.00
60244;BME280;46106;51.468;5.814;2023-08-17T03:27:50;101561.78;;;17.55;100.00
60244;BME280;46106;51.468;5.814;2023-08-17T03:30:15;101568.63;;;17.60;100.00
60244;BME280;46106;51.468;5.814;2023-08-17T03:32:41;101567.63;;;17.52;100.00
60244;BME280;46106;51.468;5.814;2023-08-17T03:35:08;101562.50;;;17.57;100.00
60244;BME280;46106;51.468;5.814;2023-08-17T03:37:34;101556.41;;;17.53;100.00
60244;BME280;46106;51.468;5.814;2023-08-17T03:40:00;101545.91;;;17.47;100.00
60244;BME280;46106;51.468;5.814;2023-08-17T03:42:28;101554.78;;;17.51;100.00
60244;BME280;46106;51.468;5.814;2023-08-17T03:44:54;101550.16;;;17.51;100.00
60244;BME280;46106;51.468;5.814;2023-08-17T03:47:19;101548.84;;;17.36;100.00
60244;BME280;46106;51.468;5.814;2023-08-17T03:49:45;101552.06;;;17.31;100.00
60244;BME280;46106;51.468;5.814;2023-08-17T03:52:11;101554.97;;;17.39;100.00
60244;BME280;46106;51.468;5.814;2023-08-17T03:54:37;101564.72;;;17.43;100.00
60244;BME280;46106;51.468;5.814;2023-08-17T03:57:02;101557.16;;;17.36;100.00
60244;BME280;46106;51.468;5.814;2023-08-17T03:59:28;101570.00;;;17.37;100.00
60244;BME280;46106;51.468;5.814;2023-08-17T04:01:53;101572.00;;;17.35;100.00
60244;BME280;46106;51.468;5.814;2023-08-17T04:04:19;101577.53;;;17.44;100.00
60244;BME280;46106;51.468;5.814;2023-08-17T04:06:44;101581.63;;;17.50;100.00
60244;BME280;46106;51.468;5.814;2023-08-17T04:09:10;101578.56;;;17.43;100.00
60244;BME280;46106;51.468;5.814;2023-08-17T04:11:35;101580.31;;;17.44;100.00
60244;BME280;46106;51.468;5.814;2023-08-17T04:14:04;101575.09;;;17.41;100.00
60244;BME280;46106;51.468;5.814;2023-08-17T04:16:37;101576.69;;;17.34;100.00
60244;BME280;46106;51.468;5.814;2023-08-17T04:19:03;101583.09;;;17.35;100.00
60244;BME280;46106;51.468;5.814;2023-08-17T04:21:28;101577.25;;;17.38;100.00
60244;BME280;46106;51.468;5.814;2023-08-17T04:23:54;101576.97;;;17.31;100.00
60244;BME280;46106;51.468;5.814;2023-08-17T04:26:19;101586.31;;;17.30;100.00
60244;BME280;46106;51.468;5.814;2023-08-17T04:28:45;101589.53;;;17.35;100.00
60244;BME280;46106;51.468;5.814;2023-08-17T04:31:11;101588.63;;;17.35;100.00
60244;BME280;46106;51.468;5.814;2023-08-17T04:33:37;101587.31;;;17.39;100.00
60244;BME280;46106;51.468;5.814;2023-08-17T04:36:02;101586.03;;;17.33;100.00
60244;BME280;46106;51.468;5.814;2023-08-17T04:38:28;101593.00;;;17.27;100.00
60244;BME280;46106;51.468;5.814;2023-08-17T04:40:53;101601.31;;;17.18;100.00
60244;BME280;46106;51.468;5.814;2023-08-17T04:43:20;101595.66;;;17.19;100.00
60244;BME280;46106;51.468;5.814;2023-08-17T04:45:45;101599.13;;;17.21;100.00
60244;BME280;46106;51.468;5.814;2023-08-17T04:48:13;101593.88;;;17.18;100.00
60244;BME280;46106;51.468;5.814;2023-08-17T04:50:38;101589.81;;;17.22;100.00
60244;BME280;46106;51.468;5.814;2023-08-17T04:53:05;101597.25;;;17.12;100.00
60244;BME280;46106;51.468;5.814;2023-08-17T04:55:31;101600.59;;;17.06;100.00
60244;BME280;46106;51.468;5.814;2023-08-17T04:57:57;101609.91;;;17.15;100.00
60244;BME280;46106;51.468;5.814;2023-08-17T05:00:23;101603.66;;;17.03;100.00
60244;BME280;46106;51.468;5.814;2023-08-17T05:02:55;101603.38;;;17.06;100.00
60244;BME280;46106;51.468;5.814;2023-08-17T05:05:21;101604.25;;;17.06;100.00
60244;BME280;46106;51.468;5.814;2023-08-17T05:07:46;101606.44;;;17.03;100.00
60244;BME280;46106;51.468;5.814;2023-08-17T05:10:13;101603.09;;;16.99;100.00
60244;BME280;46106;51.468;5.814;2023-08-17T05:12:42;101604.97;;;16.89;100.00
60244;BME280;46106;51.468;5.814;2023-08-17T05:15:07;101602.78;;;16.93;100.00
60244;BME280;46106;51.468;5.814;2023-08-17T05:17:33;101600.59;;;16.86;100.00
60244;BME280;46106;51.468;5.814;2023-08-17T05:19:59;101603.38;;;16.86;100.00
60244;BME280;46106;51.468;5.814;2023-08-17T05:22:27;101604.47;;;16.84;100.00
60244;BME280;46106;51.468;5.814;2023-08-17T05:24:54;101595.50;;;16.92;100.00
60244;BME280;46106;51.468;5.814;2023-08-17T05:27:21;101602.78;;;16.93;100.00
60244;BME280;46106;51.468;5.814;2023-08-17T05:29:46;101598.53;;;16.88;100.00
60244;BME280;46106;51.468;5.814;2023-08-17T05:32:12;101597.13;;;17.04;100.00
60244;BME280;46106;51.468;5.814;2023-08-17T05:34:42;101601.31;;;17.08;100.00
60244;BME280;46106;51.468;5.814;2023-08-17T05:37:10;101601.47;;;17.16;100.00
60244;BME280;46106;51.468;5.814;2023-08-17T05:39:36;101600.47;;;17.27;100.00
60244;BME280;46106;51.468;5.814;2023-08-17T05:42:01;101601.75;;;17.23;100.00
60244;BME280;46106;51.468;5.814;2023-08-17T05:44:27;101605.56;;;17.22;100.00
60244;BME280;46106;51.468;5.814;2023-08-17T05:46:52;101600.59;;;17.25;100.00
60244;BME280;46106;51.468;5.814;2023-08-17T05:49:19;101604.94;;;17.28;100.00
60244;BME280;46106;51.468;5.814;2023-08-17T05:51:46;101605.22;;;17.35;100.00
60244;BME280;46106;51.468;5.814;2023-08-17T05:54:16;101614.72;;;17.42;100.00
60244;BME280;46106;51.468;5.814;2023-08-17T05:56:41;101616.91;;;17.38;100.00
60244;BME280;46106;51.468;5.814;2023-08-17T05:59:12;101607.28;;;17.42;100.00
60244;BME280;46106;51.468;5.814;2023-08-17T06:01:38;101616.63;;;17.41;100.00
60244;BME280;46106;51.468;5.814;2023-08-17T06:04:06;101623.88;;;17.52;100.00
60244;BME280;46106;51.468;5.814;2023-08-17T06:06:32;101609.00;;;17.63;100.00
60244;BME280;46106;51.468;5.814;2023-08-17T06:08:57;101613.34;;;17.66;100.00
60244;BME280;46106;51.468;5.814;2023-08-17T06:11:23;101609.84;;;17.63;100.00
60244;BME280;46106;51.468;5.814;2023-08-17T06:13:49;101615.38;;;17.73;100.00
60244;BME280;46106;51.468;5.814;2023-08-17T06:16:14;101610.41;;;17.77;100.00
60244;BME280;46106;51.468;5.814;2023-08-17T06:18:41;101613.75;;;17.80;100.00
60244;BME280;46106;51.468;5.814;2023-08-17T06:21:08;101611.75;;;17.73;100.00
60244;BME280;46106;51.468;5.814;2023-08-17T06:23:36;101616.47;;;18.00;100.00
60244;BME280;46106;51.468;5.814;2023-08-17T06:26:21;101618.69;;;17.96;100.00
60244;BME280;46106;51.468;5.814;2023-08-17T06:28:47;101609.81;;;17.93;100.00
60244;BME280;46106;51.468;5.814;2023-08-17T06:31:16;101613.88;;;17.98;100.00
60244;BME280;46106;51.468;5.814;2023-08-17T06:33:43;101613.38;;;18.13;100.00
60244;BME280;46106;51.468;5.814;2023-08-17T06:36:08;101618.91;;;18.13;100.00
60244;BME280;46106;51.468;5.814;2023-08-17T06:38:39;101607.84;;;18.13;100.00
60244;BME280;46106;51.468;5.814;2023-08-17T06:41:05;101615.66;;;18.27;100.00
60244;BME280;46106;51.468;5.814;2023-08-17T06:43:30;101611.69;;;18.30;100.00
60244;BME280;46106;51.468;5.814;2023-08-17T06:45:59;101616.00;;;18.42;100.00
60244;BME280;46106;51.468;5.814;2023-08-17T06:48:25;101618.06;;;18.40;100.00
60244;BME280;46106;51.468;5.814;2023-08-17T06:50:51;101631.03;;;18.40;100.00
60244;BME280;46106;51.468;5.814;2023-08-17T06:53:18;101620.84;;;18.40;100.00
60244;BME280;46106;51.468;5.814;2023-08-17T06:55:43;101616.16;;;18.13;100.00
60244;BME280;46106;51.468;5.814;2023-08-17T06:58:09;101621.03;;;18.29;100.00
60244;BME280;46106;51.468;5.814;2023-08-17T07:00:34;101617.88;;;18.24;100.00
60244;BME280;46106;51.468;5.814;2023-08-17T07:03:00;101615.34;;;18.30;100.00
60244;BME280;46106;51.468;5.814;2023-08-17T07:05:26;101622.63;;;18.31;100.00
60244;BME280;46106;51.468;5.814;2023-08-17T07:07:51;101621.34;;;18.26;100.00
60244;BME280;46106;51.468;5.814;2023-08-17T07:10:18;101621.56;;;18.42;100.00
60244;BME280;46106;51.468;5.814;2023-08-17T07:12:44;101621.00;;;18.39;100.00
60244;BME280;46106;51.468;5.814;2023-08-17T07:15:10;101617.03;;;18.41;100.00
60244;BME280;46106;51.468;5.814;2023-08-17T07:17:37;101619.34;;;18.46;100.00
60244;BME280;46106;51.468;5.814;2023-08-17T07:20:03;101626.03;;;18.53;100.00
60244;BME280;46106;51.468;5.814;2023-08-17T07:22:29;101622.22;;;18.54;100.00
60244;BME280;46106;51.468;5.814;2023-08-17T07:24:55;101622.66;;;18.49;100.00
60244;BME280;46106;51.468;5.814;2023-08-17T07:27:20;101632.41;;;18.35;100.00
60244;BME280;46106;51.468;5.814;2023-08-17T07:29:46;101624.19;;;18.44;100.00
60244;BME280;46106;51.468;5.814;2023-08-17T07:32:11;101627.59;;;18.55;100.00
60244;BME280;46106;51.468;5.814;2023-08-17T07:34:37;101630.38;;;18.55;100.00
60244;BME280;46106;51.468;5.814;2023-08-17T07:37:05;101634.81;;;18.48;100.00
60244;BME280;46106;51.468;5.814;2023-08-17T07:39:31;101623.22;;;18.63;100.00
60244;BME280;46106;51.468;5.814;2023-08-17T07:41:57;101631.44;;;18.54;100.00
60244;BME280;46106;51.468;5.814;2023-08-17T07:44:23;101628.22;;;18.49;100.00
60244;BME280;46106;51.468;5.814;2023-08-17T07:46:49;101629.66;;;18.53;100.00
60244;BME280;46106;51.468;5.814;2023-08-17T07:49:15;101621.59;;;18.32;100.00
60244;BME280;46106;51.468;5.814;2023-08-17T07:51:41;101629.38;;;18.29;100.00
60244;BME280;46106;51.468;5.814;2023-08-17T07:54:07;101635.50;;;18.23;100.00
60244;BME280;46106;51.468;5.814;2023-08-17T07:56:33;101637.13;;;18.25;100.00
60244;BME280;46106;51.468;5.814;2023-08-17T07:58:58;101634.94;;;18.19;100.00
60244;BME280;46106;51.468;5.814;2023-08-17T08:01:24;101648.44;;;18.04;100.00
60244;BME280;46106;51.468;5.814;2023-08-17T08:03:50;101651.47;;;18.11;100.00
60244;BME280;46106;51.468;5.814;2023-08-17T08:06:17;101646.22;;;18.08;100.00
60244;BME280;46106;51.468;5.814;2023-08-17T08:08:42;101652.63;;;18.08;100.00
60244;BME280;46106;51.468;5.814;2023-08-17T08:11:09;101650.44;;;18.12;100.00
60244;BME280;46106;51.468;5.814;2023-08-17T08:13:35;101660.72;;;18.29;100.00
60244;BME280;46106;51.468;5.814;2023-08-17T08:16:00;101659.59;;;18.22;100.00
60244;BME280;46106;51.468;5.814;2023-08-17T08:18:26;101653.50;;;18.18;100.00
60244;BME280;46106;51.468;5.814;2023-08-17T08:20:51;101654.63;;;18.26;100.00
60244;BME280;46106;51.468;5.814;2023-08-17T08:23:17;101651.16;;;18.14;100.00
60244;BME280;46106;51.468;5.814;2023-08-17T08:25:42;101659.34;;;18.15;100.00
60244;BME280;46106;51.468;5.814;2023-08-17T08:28:07;101651.59;;;18.19;100.00
60244;BME280;46106;51.468;5.814;2023-08-17T08:30:33;101647.94;;;18.18;100.00
60244;BME280;46106;51.468;5.814;2023-08-17T08:32:59;101654.63;;;18.26;100.00
60244;BME280;46106;51.468;5.814;2023-08-17T08:35:26;101652.56;;;18.28;100.00
60244;BME280;46106;51.468;5.814;2023-08-17T08:37:52;101644.38;;;18.26;100.00
60244;BME280;46106;51.468;5.814;2023-08-17T08:40:27;101647.00;;;18.28;100.00
60244;BME280;46106;51.468;5.814;2023-08-17T08:42:55;101650.31;;;18.41;100.00
60244;BME280;46106;51.468;5.814;2023-08-17T08:45:21;101652.94;;;18.43;100.00
60244;BME280;46106;51.468;5.814;2023-08-17T08:47:49;101667.19;;;18.48;100.00
60244;BME280;46106;51.468;5.814;2023-08-17T08:50:21;101658.78;;;18.40;100.00
60244;BME280;46106;51.468;5.814;2023-08-17T08:53:02;101655.78;;;18.23;100.00
60244;BME280;46106;51.468;5.814;2023-08-17T08:55:37;101651.13;;;18.24;100.00
60244;BME280;46106;51.468;5.814;2023-08-17T08:58:06;101652.78;;;18.44;100.00
60244;BME280;46106;51.468;5.814;2023-08-17T09:00:33;101648.66;;;18.76;100.00
60244;BME280;46106;51.468;5.814;2023-08-17T09:02:59;101625.63;;;18.66;100.00
60244;BME280;46106;51.468;5.814;2023-08-17T09:05:26;101623.66;;;18.86;100.00
60244;BME280;46106;51.468;5.814;2023-08-17T09:07:52;101625.31;;;18.97;100.00
60244;BME280;46106;51.468;5.814;2023-08-17T09:10:18;101624.06;;;19.09;100.00
60244;BME280;46106;51.468;5.814;2023-08-17T09:12:46;101629.00;;;18.97;100.00
60244;BME280;46106;51.468;5.814;2023-08-17T09:15:12;101637.53;;;18.86;100.00
60244;BME280;46106;51.468;5.814;2023-08-17T09:17:37;101631.84;;;18.87;100.00
60244;BME280;46106;51.468;5.814;2023-08-17T09:20:03;101623.34;;;19.07;100.00
60244;BME280;46106;51.468;5.814;2023-08-17T09:22:41;101626.53;;;18.94;100.00
60244;BME280;46106;51.468;5.814;2023-08-17T09:25:10;101623.44;;;18.97;100.00
60244;BME280;46106;51.468;5.814;2023-08-17T09:27:38;101623.38;;;18.79;100.00
60244;BME280;46106;51.468;5.814;2023-08-17T09:30:05;101614.13;;;18.88;100.00
60244;BME280;46106;51.468;5.814;2023-08-17T09:32:32;101625.63;;;18.94;100.00
60244;BME280;46106;51.468;5.814;2023-08-17T09:35:01;101625.25;;;18.88;100.00
60244;BME280;46106;51.468;5.814;2023-08-17T09:37:27;101627.84;;;18.90;100.00
60244;BME280;46106;51.468;5.814;2023-08-17T09:39:53;101633.97;;;18.94;100.00
60244;BME280;46106;51.468;5.814;2023-08-17T09:42:20;101623.09;;;19.00;100.00
60244;BME280;46106;51.468;5.814;2023-08-17T09:44:49;101621.44;;;18.89;100.00
60244;BME280;46106;51.468;5.814;2023-08-17T09:47:18;101634.13;;;18.92;100.00
60244;BME280;46106;51.468;5.814;2023-08-17T09:49:53;101622.31;;;19.08;100.00
60244;BME280;46106;51.468;5.814;2023-08-17T09:52:22;101620.56;;;19.07;100.00
60244;BME280;46106;51.468;5.814;2023-08-17T09:54:49;101614.63;;;19.02;100.00
60244;BME280;46106;51.468;5.814;2023-08-17T09:57:16;101620.00;;;19.03;100.00
60244;BME280;46106;51.468;5.814;2023-08-17T09:59:41;101622.78;;;19.03;100.00
60244;BME280;46106;51.468;5.814;2023-08-17T10:02:22;101611.66;;;18.85;100.00
60244;BME280;46106;51.468;5.814;2023-08-17T10:04:53;101613.44;;;19.22;100.00
60244;BME280;46106;51.468;5.814;2023-08-17T10:07:19;101608.81;;;19.31;100.00
60244;BME280;46106;51.468;5.814;2023-08-17T10:09:53;101601.59;;;19.38;100.00
60244;BME280;46106;51.468;5.814;2023-08-17T10:12:22;101608.19;;;19.37;100.00
60244;BME280;46106;51.468;5.814;2023-08-17T10:14:59;101604.13;;;19.50;100.00
60244;BME280;46106;51.468;5.814;2023-08-17T10:17:31;101600.97;;;20.31;100.00
60244;BME280;46106;51.468;5.814;2023-08-17T10:20:00;101594.38;;;20.75;100.00
60244;BME280;46106;51.468;5.814;2023-08-17T10:22:34;101589.50;;;20.85;100.00
60244;BME280;46106;51.468;5.814;2023-08-17T10:25:02;101603.91;;;20.72;100.00
60244;BME280;46106;51.468;5.814;2023-08-17T10:27:28;101595.41;;;20.74;100.00
60244;BME280;46106;51.468;5.814;2023-08-17T10:29:54;101595.25;;;20.84;100.00
60244;BME280;46106;51.468;5.814;2023-08-17T10:32:24;101583.78;;;20.95;100.00
60244;BME280;46106;51.468;5.814;2023-08-17T10:34:51;101583.94;;;20.77;100.00
60244;BME280;46106;51.468;5.814;2023-08-17T10:37:19;101592.16;;;20.44;100.00
60244;BME280;46106;51.468;5.814;2023-08-17T10:39:46;101591.13;;;20.45;100.00
60244;BME280;46106;51.468;5.814;2023-08-17T10:42:12;101593.47;;;20.24;100.00
60244;BME280;46106;51.468;5.814;2023-08-17T10:44:46;101590.09;;;20.12;100.00
60244;BME280;46106;51.468;5.814;2023-08-17T10:47:22;101588.09;;;20.22;100.00
60244;BME280;46106;51.468;5.814;2023-08-17T10:49:49;101587.63;;;20.35;100.00
60244;BME280;46106;51.468;5.814;2023-08-17T10:52:27;101587.94;;;20.32;100.00
60244;BME280;46106;51.468;5.814;2023-08-17T10:54:53;101588.84;;;20.41;100.00
60244;BME280;46106;51.468;5.814;2023-08-17T10:57:39;101579.56;;;20.66;100.00
60244;BME280;46106;51.468;5.814;2023-08-17T11:00:11;101576.88;;;20.48;100.00
60244;BME280;46106;51.468;5.814;2023-08-17T11:02:56;101583.41;;;20.73;100.00
60244;BME280;46106;51.468;5.814;2023-08-17T11:07:59;101596.66;;;20.80;100.00
60244;BME280;46106;51.468;5.814;2023-08-17T11:12:53;101596.19;;;20.50;100.00
60244;BME280;46106;51.468;5.814;2023-08-17T11:15:22;101592.19;;;20.52;100.00
60244;BME280;46106;51.468;5.814;2023-08-17T11:17:48;101591.75;;;20.31;100.00
60244;BME280;46106;51.468;5.814;2023-08-17T11:20:13;101594.13;;;20.60;100.00
60244;BME280;46106;51.468;5.814;2023-08-17T11:22:39;101597.59;;;20.62;100.00
60244;BME280;46106;51.468;5.814;2023-08-17T11:25:05;101597.22;;;20.49;100.00
60244;BME280;46106;51.468;5.814;2023-08-17T11:27:31;101600.13;;;20.39;100.00
60244;BME280;46106;51.468;5.814;2023-08-17T11:29:58;101602.09;;;20.47;100.00
60244;BME280;46106;51.468;5.814;2023-08-17T11:32:24;101604.03;;;20.63;100.00
60244;BME280;46106;51.468;5.814;2023-08-17T11:34:52;101605.19;;;20.44;100.00
60244;BME280;46106;51.468;5.814;2023-08-17T11:37:17;101606.56;;;20.39;100.00
60244;BME280;46106;51.468;5.814;2023-08-17T11:42:08;101601.41;;;20.45;100.00
60244;BME280;46106;51.468;5.814;2023-08-17T11:44:33;101600.25;;;20.64;100.00
60244;BME280;46106;51.468;5.814;2023-08-17T11:46:59;101598.75;;;20.35;100.00
60244;BME280;46106;51.468;5.814;2023-08-17T11:49:30;101603.22;;;20.28;100.00
60244;BME280;46106;51.468;5.814;2023-08-17T11:51:55;101606.16;;;20.26;100.00
60244;BME280;46106;51.468;5.814;2023-08-17T11:54:20;101599.53;;;20.19;100.00
60244;BME280;46106;51.468;5.814;2023-08-17T11:56:47;101608.03;;;20.52;100.00
60244;BME280;46106;51.468;5.814;2023-08-17T11:59:13;101605.53;;;20.41;100.00
60244;BME280;46106;51.468;5.814;2023-08-17T12:01:44;101613.00;;;20.32;100.00
60244;BME280;46106;51.468;5.814;2023-08-17T12:04:12;101605.00;;;20.37;100.00
60244;BME280;46106;51.468;5.814;2023-08-17T12:06:43;101600.06;;;20.23;100.00
60244;BME280;46106;51.468;5.814;2023-08-17T12:09:10;101602.72;;;20.32;100.00
60244;BME280;46106;51.468;5.814;2023-08-17T12:11:39;101601.59;;;20.51;100.00
60244;BME280;46106;51.468;5.814;2023-08-17T12:14:11;101604.72;;;20.48;100.00
60244;BME280;46106;51.468;5.814;2023-08-17T12:16:48;101602.97;;;20.55;100.00
60244;BME280;46106;51.468;5.814;2023-08-17T12:19:16;101600.69;;;20.51;100.00
60244;BME280;46106;51.468;5.814;2023-08-17T12:21:42;101599.97;;;20.41;100.00
60244;BME280;46106;51.468;5.814;2023-08-17T12:24:11;101600.00;;;20.49;100.00
60244;BME280;46106;51.468;5.814;2023-08-17T12:26:41;101599.00;;;20.58;100.00
60244;BME280;46106;51.468;5.814;2023-08-17T12:29:08;101599.53;;;20.62;100.00
60244;BME280;46106;51.468;5.814;2023-08-17T12:31:35;101599.69;;;20.60;100.00
60244;BME280;46106;51.468;5.814;2023-08-17T12:34:04;101591.50;;;20.59;100.00
60244;BME280;46106;51.468;5.814;2023-08-17T12:36:31;101596.69;;;20.45;100.00
60244;BME280;46106;51.468;5.814;2023-08-17T12:38:57;101598.28;;;20.56;100.00
60244;BME280;46106;51.468;5.814;2023-08-17T12:41:22;101598.41;;;20.46;100.00
60244;BME280;46106;51.468;5.814;2023-08-17T12:43:48;101599.84;;;20.50;100.00
60244;BME280;46106;51.468;5.814;2023-08-17T12:46:13;101595.66;;;20.54;100.00
60244;BME280;46106;51.468;5.814;2023-08-17T12:48:39;101593.84;;;20.71;100.00
60244;BME280;46106;51.468;5.814;2023-08-17T12:51:05;101594.81;;;20.62;100.00
60244;BME280;46106;51.468;5.814;2023-08-17T12:53:31;101590.09;;;20.54;100.00